Time;durP1;ratioP1;P1;durP2;ratioP2;P2;SDS_P1;SDS_P2;PMS_P1;PMS_P2;Temp;Humidity;BMP_temperature;BMP_pressure;BME280_temperature;BME280_humidity;BME280_pressure;Samples;Min_cycle;Max_cycle;Signal;HPM_P1;HPM_P2
2022/01/15 00:03:58;;;;;;;79.93;48.90;;;4.20;81.20;;;;;;10826236;33;20046;-74
2022/01/15 00:10:01;;;;;;;59.85;46.03;;;4.10;81.30;;;;;;10827267;33;20028;-74
2022/01/15 00:16:13;;;;;;;61.83;45.80;;;4.10;81.70;;;;;;10827149;33;20028;-72
2022/01/15 00:22:18;;;;;;;61.35;47.58;;;4.10;81.60;;;;;;10827092;33;20308;-72
2022/01/15 00:28:23;;;;;;;64.82;49.90;;;4.20;81.20;;;;;;10826395;33;20324;-74
2022/01/15 00:34:26;;;;;;;67.35;49.08;;;4.20;81.10;;;;;;10823923;33;20046;-74
2022/01/15 00:40:28;;;;;;;86.03;64.18;;;4.20;81.30;;;;;;10826717;33;20021;-72
2022/01/15 00:46:31;;;;;;;66.55;51.63;;;4.20;81.30;;;;;;10813290;33;20032;-72
2022/01/15 00:52:33;;;;;;;81.87;54.50;;;4.30;81.30;;;;;;10826152;33;20047;-72
2022/01/15 00:58:35;;;;;;;83.15;63.05;;;4.20;81.10;;;;;;10822554;33;20017;-72
2022/01/15 01:04:50;;;;;;;72.50;52.20;;;4.20;81.20;;;;;;10825153;32;20024;-74
2022/01/15 01:11:02;;;;;;;75.80;55.72;;;4.20;81.20;;;;;;10825831;33;20024;-74
2022/01/15 01:23:25;;;;;;;53.40;45.12;;;4.00;81.10;;;;;;10825465;33;20012;-74
2022/01/15 01:36:11;;;;;;;78.75;53.97;;;3.60;81.60;;;;;;10825017;33;20051;-74
2022/01/15 01:48:22;;;;;;;68.60;50.40;;;3.80;81.90;;;;;;10859904;32;20036;-71
2022/01/15 01:54:24;;;;;;;73.53;56.45;;;3.70;81.60;;;;;;10860043;32;20046;-71
2022/01/15 02:00:31;;;;;;;77.68;56.25;;;3.80;82.10;;;;;;10844984;32;20043;-71
2022/01/15 02:06:35;;;;;;;72.60;56.35;;;3.80;82.10;;;;;;10861273;32;20024;-71
2022/01/15 02:12:37;;;;;;;89.35;64.45;;;3.80;81.90;;;;;;10848114;32;20399;-70
2022/01/15 02:18:40;;;;;;;63.13;51.10;;;3.70;82.00;;;;;;10851720;32;20059;-70
2022/01/15 02:24:42;;;;;;;86.43;60.20;;;3.70;81.80;;;;;;10854236;32;20343;-69
2022/01/15 02:30:57;;;;;;;75.30;57.08;;;3.70;81.90;;;;;;10867546;32;20024;-69
2022/01/15 02:36:59;;;;;;;69.78;51.28;;;3.80;81.80;;;;;;10867127;32;20042;-69
2022/01/15 02:43:15;;;;;;;71.70;56.83;;;3.70;81.60;;;;;;10866966;32;20316;-71
2022/01/15 02:49:18;;;;;;;61.40;47.75;;;3.70;81.50;;;;;;10866634;32;20376;-70
2022/01/15 02:55:20;;;;;;;65.87;51.37;;;3.70;81.30;;;;;;10866628;32;20051;-71
2022/01/15 03:01:23;;;;;;;84.32;60.38;;;3.60;81.10;;;;;;10866598;32;20012;-71
2022/01/15 03:07:25;;;;;;;88.80;65.62;;;3.60;81.40;;;;;;10853120;32;20319;-69
2022/01/15 03:13:28;;;;;;;70.72;52.65;;;3.60;81.30;;;;;;10864951;32;20027;-71
2022/01/15 03:19:30;;;;;;;68.15;52.53;;;3.70;81.30;;;;;;10851736;32;20055;-71
2022/01/15 03:25:32;;;;;;;83.85;57.25;;;3.60;81.10;;;;;;10852493;32;20015;-71
2022/01/15 03:31:34;;;;;;;70.15;52.62;;;3.40;81.30;;;;;;10865096;32;20020;-71
2022/01/15 03:37:37;;;;;;;83.43;62.60;;;3.30;81.60;;;;;;10865390;32;20046;-71
2022/01/15 03:43:46;;;;;;;77.62;56.92;;;3.40;81.60;;;;;;10865269;32;20020;-71
2022/01/15 03:49:49;;;;;;;62.72;50.67;;;3.40;81.60;;;;;;10865013;32;20050;-69
2022/01/15 03:55:52;;;;;;;83.70;59.47;;;3.40;81.50;;;;;;10864284;32;20024;-69
2022/01/15 04:01:54;;;;;;;70.03;50.63;;;3.30;81.30;;;;;;10864713;32;20023;-71
2022/01/15 04:07:56;;;;;;;87.53;65.97;;;3.40;81.20;;;;;;10860400;32;20055;-71
2022/01/15 04:13:59;;;;;;;83.55;62.83;;;3.40;81.70;;;;;;10862878;32;20042;-71
2022/01/15 04:20:01;;;;;;;75.53;55.78;;;3.40;81.90;;;;;;10864249;32;20046;-71
2022/01/15 04:26:04;;;;;;;61.72;48.00;;;3.30;81.60;;;;;;10849246;32;20023;-71
2022/01/15 04:32:08;;;;;;;58.50;42.80;;;3.10;81.80;;;;;;10859712;32;20050;-71
2022/01/15 04:38:12;;;;;;;67.30;48.65;;;3.00;82.00;;;;;;10863737;32;20419;-71
2022/01/15 04:44:15;;;;;;;84.68;59.38;;;3.10;81.80;;;;;;10863209;32;20020;-71
2022/01/15 04:50:17;;;;;;;60.88;46.10;;;3.20;81.90;;;;;;10863305;32;20036;-71
2022/01/15 04:56:21;;;;;;;64.93;50.45;;;3.20;81.70;;;;;;10863145;32;20050;-71
2022/01/15 05:02:23;;;;;;;65.85;50.28;;;3.20;81.60;;;;;;10863095;32;20038;-71
2022/01/15 05:08:25;;;;;;;59.65;44.58;;;3.20;81.40;;;;;;10845361;32;20027;-71
2022/01/15 05:14:30;;;;;;;68.95;50.42;;;3.20;81.60;;;;;;10859782;32;20024;-71
2022/01/15 05:20:33;;;;;;;73.37;57.58;;;3.20;81.50;;;;;;10862576;32;20055;-71
2022/01/15 05:26:35;;;;;;;75.00;56.05;;;3.10;81.50;;;;;;10862100;32;20038;-70
2022/01/15 05:32:38;;;;;;;77.18;57.53;;;3.10;81.40;;;;;;10858265;32;20012;-71
2022/01/15 05:38:40;;;;;;;81.63;61.83;;;3.10;81.50;;;;;;10862033;32;20038;-71
2022/01/15 05:44:47;;;;;;;70.45;52.50;;;3.10;81.90;;;;;;10848459;32;20046;-71
2022/01/15 05:50:50;;;;;;;51.22;40.97;;;3.10;81.70;;;;;;10857778;32;20050;-71
2022/01/15 05:56:52;;;;;;;57.67;44.88;;;3.00;81.50;;;;;;10861611;32;20054;-71
2022/01/15 06:03:11;;;;;;;63.55;49.95;;;3.00;81.50;;;;;;10857354;32;20039;-71
2022/01/15 06:09:13;;;;;;;61.90;47.85;;;2.90;81.50;;;;;;10861501;32;20391;-71
2022/01/15 06:15:16;;;;;;;69.85;48.22;;;2.90;81.90;;;;;;10856951;32;20054;-71
2022/01/15 06:21:18;;;;;;;58.72;45.63;;;2.80;82.00;;;;;;10860953;32;20070;-71
2022/01/15 06:27:20;;;;;;;65.55;49.28;;;2.80;81.80;;;;;;10860801;32;20105;-71
2022/01/15 06:33:22;;;;;;;61.45;48.30;;;2.90;82.20;;;;;;10860712;32;20032;-73
2022/01/15 06:39:25;;;;;;;59.80;43.47;;;2.90;82.10;;;;;;10857335;32;20321;-73
2022/01/15 06:45:30;;;;;;;63.53;44.67;;;2.80;82.10;;;;;;10860370;32;20023;-73
2022/01/15 06:51:32;;;;;;;55.47;45.65;;;2.80;82.00;;;;;;10860444;32;20020;-73
2022/01/15 06:57:35;;;;;;;61.28;44.65;;;2.60;82.10;;;;;;10846811;32;20058;-73
2022/01/15 07:03:37;;;;;;;59.40;43.90;;;2.70;82.00;;;;;;10862405;32;20023;-73
2022/01/15 07:09:39;;;;;;;50.12;41.15;;;2.70;81.70;;;;;;10866227;32;20054;-73
2022/01/15 07:15:41;;;;;;;53.90;42.22;;;2.70;81.60;;;;;;10852835;32;20054;-73
2022/01/15 07:22:04;;;;;;;59.90;43.47;;;2.70;81.70;;;;;;10862166;32;20328;-74
2022/01/15 07:28:29;;;;;;;59.95;44.00;;;2.80;81.60;;;;;;10849805;32;20396;-74
2022/01/15 07:34:33;;;;;;;48.20;39.38;;;2.80;81.50;;;;;;10865563;32;20028;-74
2022/01/15 07:40:35;;;;;;;53.40;42.95;;;2.70;81.60;;;;;;10865334;32;20020;-74
2022/01/15 07:47:07;;;;;;;53.03;41.95;;;2.60;81.90;;;;;;10851916;32;20031;-74
2022/01/15 07:53:09;;;;;;;57.85;46.78;;;2.60;82.10;;;;;;10865119;32;20024;-74
2022/01/15 07:59:17;;;;;;;57.00;47.00;;;2.60;82.30;;;;;;10861549;32;20422;-74
2022/01/15 08:05:24;;;;;;;50.17;40.72;;;2.70;82.10;;;;;;10864732;32;20062;-74
2022/01/15 08:11:26;;;;;;;57.22;43.47;;;2.80;82.20;;;;;;10864479;32;20027;-74
2022/01/15 08:17:29;;;;;;;51.15;41.33;;;2.80;82.30;;;;;;10827217;32;20368;-72
2022/01/15 08:24:02;;;;;;;58.13;45.17;;;2.80;82.70;;;;;;10825804;32;20332;-69
2022/01/15 08:30:07;;;;;;;52.45;40.78;;;3.00;82.70;;;;;;10826816;32;20036;-71
2022/01/15 08:36:10;;;;;;;45.05;35.40;;;3.10;82.70;;;;;;10826694;32;20024;-71
2022/01/15 08:42:12;;;;;;;55.75;43.35;;;3.10;82.60;;;;;;10858799;32;20074;-71
2022/01/15 08:48:19;;;;;;;42.17;31.37;;;3.20;82.90;;;;;;10863348;32;20027;-71
2022/01/15 08:54:24;;;;;;;36.35;28.98;;;3.30;82.90;;;;;;10863269;32;20027;-71
2022/01/15 09:00:28;;;;;;;36.90;29.00;;;3.30;82.80;;;;;;10846158;32;20348;-71
2022/01/15 09:06:30;;;;;;;44.05;32.28;;;3.40;82.90;;;;;;10845589;32;20324;-71
2022/01/15 09:12:33;;;;;;;40.22;30.02;;;3.50;83.00;;;;;;10859584;32;20099;-71
2022/01/15 09:18:37;;;;;;;38.75;28.52;;;3.70;82.80;;;;;;10862678;32;20028;-73
2022/01/15 09:24:40;;;;;;;31.77;24.73;;;3.70;82.70;;;;;;10861674;32;20023;-73
2022/01/15 09:30:42;;;;;;;32.55;24.83;;;3.80;82.60;;;;;;10862182;32;20031;-69
2022/01/15 09:36:45;;;;;;;28.77;22.23;;;3.90;82.50;;;;;;10849106;32;20344;-68
2022/01/15 09:42:49;;;;;;;44.90;32.25;;;3.90;82.50;;;;;;10432658;27;12591873;-71
2022/01/15 09:48:51;;;;;;;27.58;19.20;;;4.10;82.50;;;;;;10706316;33;20103;-68
2022/01/15 09:54:53;;;;;;;43.22;32.30;;;4.20;82.50;;;;;;10705594;33;20423;-71
2022/01/15 10:01:05;;;;;;;37.60;28.12;;;4.30;82.40;;;;;;10709127;33;20401;-71
2022/01/15 10:07:21;;;;;;;33.65;26.40;;;4.40;82.30;;;;;;10722295;33;20070;-71
2022/01/15 10:13:46;;;;;;;33.95;25.83;;;4.50;82.50;;;;;;10783078;33;20044;-71
2022/01/15 10:19:49;;;;;;;32.90;26.58;;;4.70;82.00;;;;;;10786934;33;20397;-71
2022/01/15 10:26:14;;;;;;;33.80;25.25;;;4.90;81.70;;;;;;10787053;33;20063;-69
2022/01/15 10:32:17;;;;;;;38.30;29.85;;;5.00;81.60;;;;;;10787132;33;20337;-69
2022/01/15 10:38:19;;;;;;;20.67;15.27;;;5.20;81.60;;;;;;10818842;32;20351;-71
2022/01/15 10:44:34;;;;;;;31.87;24.87;;;5.40;81.20;;;;;;10789769;33;20102;-71
2022/01/15 10:50:37;;;;;;;31.23;23.52;;;5.50;81.10;;;;;;10793163;33;20028;-71
2022/01/15 10:56:40;;;;;;;28.10;20.83;;;5.70;80.90;;;;;;10792753;33;20029;-71
2022/01/15 11:02:48;;;;;;;36.03;25.67;;;5.80;80.60;;;;;;10790824;33;20028;-71
2022/01/15 11:08:51;;;;;;;27.08;19.92;;;6.00;80.50;;;;;;10792478;33;20055;-71
2022/01/15 11:14:54;;;;;;;32.10;25.33;;;6.20;80.20;;;;;;10791963;33;20032;-72
2022/01/15 11:21:09;;;;;;;37.60;29.77;;;6.50;80.10;;;;;;10797202;32;20028;-73
2022/01/15 11:27:11;;;;;;;35.15;26.40;;;6.80;79.50;;;;;;10792047;33;20043;-71
2022/01/15 11:33:21;;;;;;;30.83;23.92;;;7.10;78.80;;;;;;10791753;33;20324;-70
2022/01/15 11:39:30;;;;;;;27.80;20.52;;;7.40;78.30;;;;;;10791821;33;20028;-71
2022/01/15 11:45:36;;;;;;;;;;;7.70;78.10;;;;;;10791905;33;20055;-70
2022/01/15 11:51:38;;;;;;;34.28;21.92;;;7.90;77.30;;;;;;10790950;33;19931;-71
2022/01/15 11:57:50;;;;;;;28.52;22.15;;;8.00;76.60;;;;;;10791290;33;20020;-73
2022/01/15 12:04:12;;;;;;;29.83;22.95;;;8.20;76.20;;;;;;10789671;33;20055;-71
2022/01/15 12:10:17;;;;;;;33.28;24.15;;;8.20;75.60;;;;;;10790701;33;20033;-71
2022/01/15 12:16:29;;;;;;;28.23;20.75;;;8.20;75.40;;;;;;10788751;33;20032;-71
2022/01/15 12:22:57;;;;;;;34.83;23.83;;;8.30;75.00;;;;;;10790569;33;20052;-70
2022/01/15 12:28:59;;;;;;;34.28;20.20;;;8.40;75.10;;;;;;10787279;33;20032;-71
2022/01/15 12:35:02;;;;;;;25.77;18.35;;;8.40;74.50;;;;;;10813378;33;20028;-71
2022/01/15 12:41:06;;;;;;;19.42;13.70;;;8.50;74.80;;;;;;10826696;32;20032;-74
2022/01/15 12:47:08;;;;;;;19.65;15.25;;;8.50;74.50;;;;;;10823950;33;20020;-74
2022/01/15 12:53:10;;;;;;;22.92;13.68;;;8.60;74.60;;;;;;10822190;33;20031;-73
2022/01/15 12:59:13;;;;;;;18.52;14.90;;;8.70;74.40;;;;;;10825383;32;20405;-74
2022/01/15 13:05:16;;;;;;;22.58;14.85;;;8.70;74.10;;;;;;10798335;33;20035;-74
2022/01/15 13:17:23;;;;;;;23.73;17.45;;;8.70;74.10;;;;;;10822334;33;20031;-72
2022/01/15 13:23:36;;;;;;;25.88;17.23;;;8.80;74.20;;;;;;10825603;33;20040;-72
2022/01/15 13:29:40;;;;;;;19.58;15.80;;;9.00;73.80;;;;;;10825099;33;20316;-71
2022/01/15 13:35:47;;;;;;;22.30;16.50;;;9.10;73.40;;;;;;10825126;33;20035;-71
2022/01/15 13:41:49;;;;;;;21.75;16.40;;;9.20;73.10;;;;;;10826587;32;20327;-71
2022/01/15 13:47:55;;;;;;;30.05;20.42;;;9.30;72.90;;;;;;10824699;33;20055;-71
2022/01/15 13:54:28;;;;;;;28.35;20.27;;;9.30;72.90;;;;;;10811889;33;20047;-73
2022/01/15 14:00:30;;;;;;;19.75;15.07;;;9.30;72.80;;;;;;10826411;32;20051;-73
2022/01/15 14:06:45;;;;;;;26.85;15.52;;;9.30;73.00;;;;;;10825408;32;20050;-73
2022/01/15 14:13:02;;;;;;;19.40;14.45;;;9.40;72.90;;;;;;10827845;32;20294;-73
2022/01/15 14:25:29;;;;;;;22.30;15.48;;;9.50;72.70;;;;;;10760244;32;20024;-73
2022/01/15 14:31:32;;;;;;;20.20;14.77;;;10.00;72.30;;;;;;10737118;33;20025;-73
2022/01/15 14:37:35;;;;;;;22.10;13.38;;;10.20;71.70;;;;;;10619871;33;20034;-71
2022/01/15 14:43:37;;;;;;;20.25;15.13;;;10.30;71.80;;;;;;10609282;33;20053;-72
2022/01/15 14:49:40;;;;;;;21.15;15.02;;;10.50;71.60;;;;;;10593591;33;20026;-72
2022/01/15 14:55:45;;;;;;;24.08;14.32;;;10.20;72.00;;;;;;10608750;33;20370;-72
2022/01/15 15:01:47;;;;;;;19.12;14.05;;;10.20;71.80;;;;;;10759038;33;20024;-72
2022/01/15 15:07:50;;;;;;;20.75;15.32;;;10.00;71.90;;;;;;10829482;33;20024;-72
2022/01/15 15:13:53;;;;;;;18.27;12.65;;;9.70;72.60;;;;;;10824895;33;20448;-72
2022/01/15 15:19:56;;;;;;;15.82;11.80;;;9.60;73.10;;;;;;10828790;33;20380;-72
2022/01/15 15:25:59;;;;;;;15.50;10.57;;;9.70;73.10;;;;;;10823973;33;20028;-72
2022/01/15 15:32:06;;;;;;;14.70;11.07;;;9.90;73.10;;;;;;10815565;33;20028;-72
2022/01/15 15:38:09;;;;;;;14.05;10.05;;;9.70;73.30;;;;;;10828300;33;20020;-72
2022/01/15 15:44:11;;;;;;;16.08;10.80;;;9.30;73.90;;;;;;10828274;33;20020;-72
2022/01/15 15:50:13;;;;;;;21.50;15.57;;;8.80;74.50;;;;;;10827957;33;20306;-71
2022/01/15 15:56:25;;;;;;;12.43;9.35;;;8.50;75.10;;;;;;10829186;33;20047;-72
2022/01/15 16:02:27;;;;;;;21.60;14.85;;;8.20;75.40;;;;;;10826041;33;20023;-72
2022/01/15 16:08:29;;;;;;;16.70;10.85;;;7.90;75.80;;;;;;10828104;32;20336;-72
2022/01/15 16:14:32;;;;;;;23.73;15.02;;;7.70;76.00;;;;;;10826572;33;20078;-72
2022/01/15 16:20:34;;;;;;;18.02;11.02;;;7.50;76.20;;;;;;10826976;33;20023;-71
2022/01/15 16:26:36;;;;;;;13.48;10.65;;;7.40;76.30;;;;;;10824588;33;20017;-72
2022/01/15 16:32:40;;;;;;;18.30;12.50;;;7.20;76.50;;;;;;10826793;33;20020;-71
2022/01/15 16:38:42;;;;;;;23.73;15.52;;;7.10;76.60;;;;;;10826646;32;20086;-72
2022/01/15 16:44:44;;;;;;;24.10;13.18;;;6.90;76.80;;;;;;10826248;33;20024;-71
2022/01/15 16:50:47;;;;;;;14.60;9.73;;;6.90;77.00;;;;;;10822202;33;20404;-71
2022/01/15 16:56:53;;;;;;;15.43;11.73;;;6.70;77.20;;;;;;10826209;33;20028;-72
2022/01/15 17:02:55;;;;;;;16.08;12.05;;;6.70;77.40;;;;;;10826140;33;20024;-71
2022/01/15 17:08:58;;;;;;;17.75;10.02;;;6.60;77.70;;;;;;10821832;33;20050;-72
2022/01/15 17:15:05;;;;;;;12.80;8.57;;;6.50;77.90;;;;;;10825921;33;20016;-73
2022/01/15 17:21:07;;;;;;;12.00;8.75;;;6.50;78.00;;;;;;10811322;33;20016;-71
2022/01/15 17:27:09;;;;;;;13.38;10.07;;;6.40;78.10;;;;;;10825378;33;20024;-74
2022/01/15 17:33:13;;;;;;;11.57;8.85;;;6.40;78.20;;;;;;10811448;33;20063;-74
2022/01/15 17:39:15;;;;;;;13.77;8.60;;;6.30;78.30;;;;;;10824518;33;20016;-74
2022/01/15 17:45:36;;;;;;;22.05;15.52;;;6.20;78.40;;;;;;10856883;27;20058;-73
2022/01/15 17:51:38;;;;;;;17.50;11.27;;;6.20;78.60;;;;;;10861770;32;20062;-74
2022/01/15 17:57:41;;;;;;;19.33;13.15;;;6.20;78.70;;;;;;10860757;32;20028;-72
2022/01/15 18:03:48;;;;;;;17.23;12.55;;;6.10;78.80;;;;;;10861660;32;20066;-73
2022/01/15 18:09:50;;;;;;;20.02;14.65;;;6.00;78.90;;;;;;10860669;32;20046;-73
2022/01/15 18:15:53;;;;;;;24.30;17.73;;;6.00;79.00;;;;;;10861341;32;20074;-74
2022/01/15 18:22:21;;;;;;;18.75;12.68;;;5.90;79.30;;;;;;10852440;32;20050;-74
2022/01/15 18:28:23;;;;;;;16.62;12.68;;;5.90;79.50;;;;;;10884386;32;20062;-72
2022/01/15 18:34:25;;;;;;;36.80;25.77;;;5.80;79.50;;;;;;10899598;32;20023;-73
2022/01/15 18:40:29;;;;;;;39.00;23.55;;;5.70;79.70;;;;;;10900634;32;20027;-73
2022/01/15 18:46:36;;;;;;;36.28;25.83;;;5.70;80.00;;;;;;10896830;32;20031;-73
2022/01/15 18:52:38;;;;;;;41.22;26.85;;;5.70;80.20;;;;;;10896517;32;20031;-74
2022/01/15 18:58:40;;;;;;;34.58;23.12;;;5.70;80.30;;;;;;10903021;32;20019;-71
2022/01/15 19:04:42;;;;;;;36.22;24.67;;;5.50;80.50;;;;;;10849973;32;20387;-73
2022/01/15 19:10:46;;;;;;;32.65;20.27;;;5.50;80.60;;;;;;10829328;33;20276;-73
2022/01/15 19:16:48;;;;;;;32.30;22.35;;;5.50;80.60;;;;;;10825027;33;20028;-73
2022/01/15 19:22:52;;;;;;;32.88;23.38;;;5.40;80.50;;;;;;10829058;33;20019;-73
2022/01/15 19:28:54;;;;;;;27.67;17.20;;;5.40;80.50;;;;;;10828119;33;20032;-73
2022/01/15 19:34:57;;;;;;;25.33;20.33;;;5.40;80.50;;;;;;10828873;33;20050;-73
2022/01/15 19:40:59;;;;;;;36.47;24.25;;;5.30;80.60;;;;;;10828634;32;20346;-73
2022/01/15 19:47:02;;;;;;;38.30;25.25;;;5.30;80.60;;;;;;10828259;33;20032;-73
2022/01/15 19:53:36;;;;;;;32.95;23.00;;;5.20;80.60;;;;;;10824167;33;20028;-74
2022/01/15 19:59:39;;;;;;;34.97;23.80;;;5.20;80.60;;;;;;10827976;33;20039;-73
2022/01/15 20:05:41;;;;;;;24.95;17.83;;;5.20;80.60;;;;;;10827949;33;20036;-71
2022/01/15 20:11:43;;;;;;;28.10;18.05;;;5.20;80.70;;;;;;10827269;32;20085;-73
2022/01/15 20:17:46;;;;;;;27.62;20.25;;;5.20;80.70;;;;;;10827384;33;20066;-72
2022/01/15 20:23:50;;;;;;;26.30;20.65;;;5.20;80.70;;;;;;10878163;32;20021;-72
2022/01/15 20:29:52;;;;;;;30.02;20.52;;;5.10;80.80;;;;;;10826776;33;20058;-72
2022/01/15 20:35:55;;;;;;;35.30;25.90;;;5.10;80.80;;;;;;10877612;32;20047;-72
2022/01/15 20:42:04;;;;;;;36.83;26.50;;;5.00;80.80;;;;;;10877525;32;20032;-72
2022/01/15 20:48:09;;;;;;;37.42;27.80;;;4.90;80.90;;;;;;10876890;32;20058;-72
2022/01/15 20:54:11;;;;;;;41.20;29.73;;;4.90;80.90;;;;;;10826436;33;20044;-72
2022/01/15 21:00:22;;;;;;;32.17;23.85;;;4.90;81.00;;;;;;10822307;33;20024;-71
2022/01/15 21:06:24;;;;;;;36.20;23.12;;;4.80;80.90;;;;;;10876835;32;20070;-72
2022/01/15 21:12:28;;;;;;;33.20;24.77;;;4.70;80.90;;;;;;10825937;33;20055;-72
2022/01/15 21:18:31;;;;;;;51.42;34.97;;;4.70;80.90;;;;;;10825672;33;20050;-71
2022/01/15 21:24:33;;;;;;;35.47;27.70;;;4.70;81.00;;;;;;10824931;32;20055;-72
2022/01/15 21:30:36;;;;;;;42.83;28.65;;;4.70;81.00;;;;;;10825281;33;20040;-71
2022/01/15 21:36:38;;;;;;;32.70;22.80;;;4.60;81.00;;;;;;10821125;33;20028;-72
2022/01/15 21:42:40;;;;;;;51.03;36.67;;;4.60;81.00;;;;;;10824967;33;20051;-72
2022/01/15 21:48:42;;;;;;;37.60;27.92;;;4.60;81.00;;;;;;10876905;32;20204;-72
2022/01/15 21:55:12;;;;;;;47.45;34.60;;;4.60;81.20;;;;;;10820764;33;20023;-72
2022/01/15 22:01:16;;;;;;;62.55;45.75;;;4.50;81.40;;;;;;10824768;32;20016;-74
2022/01/15 22:07:19;;;;;;;52.72;37.22;;;4.50;81.70;;;;;;10821679;33;20055;-72
2022/01/15 22:13:24;;;;;;;56.10;41.25;;;4.50;82.00;;;;;;10824405;33;20008;-74
2022/01/15 22:19:27;;;;;;;55.50;38.63;;;4.40;82.20;;;;;;10824240;33;20062;-74
2022/01/15 22:25:30;;;;;;;39.42;30.95;;;4.40;82.40;;;;;;10824214;33;20058;-74
2022/01/15 22:31:32;;;;;;;58.45;41.28;;;4.40;82.20;;;;;;10821676;32;20031;-74
2022/01/15 22:37:35;;;;;;;54.45;35.78;;;4.40;82.10;;;;;;10829702;33;20324;-72
2022/01/15 22:43:37;;;;;;;45.45;34.53;;;4.40;82.00;;;;;;10830396;33;20028;-72
2022/01/15 22:49:40;;;;;;;52.45;37.13;;;4.40;81.90;;;;;;10830188;33;20020;-73
2022/01/15 22:56:16;;;;;;;56.42;40.12;;;4.40;81.80;;;;;;10829984;33;20023;-73
2022/01/15 23:02:19;;;;;;;39.13;28.55;;;4.40;81.80;;;;;;10829974;33;20024;-71
2022/01/15 23:08:22;;;;;;;40.78;27.00;;;4.20;81.80;;;;;;10827838;33;20029;-71
2022/01/15 23:14:27;;;;;;;37.38;28.70;;;4.20;81.80;;;;;;10829495;33;20028;-70
2022/01/15 23:20:30;;;;;;;40.12;28.98;;;4.10;81.80;;;;;;10829319;33;20036;-68
2022/01/15 23:26:33;;;;;;;38.88;29.80;;;4.10;81.70;;;;;;10829105;33;20028;-68
2022/01/15 23:32:36;;;;;;;42.80;31.15;;;4.10;81.80;;;;;;10828893;33;20047;-71
2022/01/15 23:38:38;;;;;;;62.22;42.50;;;4.10;81.70;;;;;;10828990;33;20047;-70
2022/01/15 23:44:45;;;;;;;42.25;29.77;;;4.10;81.70;;;;;;10827777;32;20035;-70
2022/01/15 23:50:48;;;;;;;37.00;29.17;;;4.00;81.70;;;;;;10828417;33;20027;-70
2022/01/15 23:56:51;;;;;;;39.35;31.42;;;3.90;81.80;;;;;;10825689;33;20434;-70
